createdAt,value
2023-03-12T00:01:59.530Z,4.10
2023-03-12T00:04:26.321Z,3.97
2023-03-12T00:06:52.732Z,4.11
2023-03-12T00:09:19.219Z,4.06
2023-03-12T00:11:45.588Z,3.85
2023-03-12T00:14:12.242Z,3.90
2023-03-12T00:16:38.594Z,3.87
2023-03-12T00:19:04.977Z,3.91
2023-03-12T00:21:31.544Z,3.93
2023-03-12T00:23:57.988Z,3.81
2023-03-12T00:26:24.426Z,3.86
2023-03-12T00:28:51.390Z,3.76
2023-03-12T00:31:19.086Z,3.84
2023-03-12T00:33:45.868Z,3.82
2023-03-12T00:36:12.535Z,3.86
2023-03-12T00:38:38.929Z,3.84
2023-03-12T00:41:05.347Z,3.79
2023-03-12T00:43:31.771Z,3.75
2023-03-12T00:45:58.250Z,3.58
2023-03-12T00:48:25.322Z,3.70
2023-03-12T00:50:51.828Z,3.66
2023-03-12T00:53:18.304Z,3.62
2023-03-12T00:55:44.751Z,3.54
2023-03-12T00:58:11.239Z,3.62
2023-03-12T01:00:37.651Z,3.41
2023-03-12T01:03:04.316Z,3.49
2023-03-12T01:05:33.477Z,3.44
2023-03-12T01:08:01.177Z,3.46
2023-03-12T01:10:27.558Z,3.27
2023-03-12T01:12:53.964Z,3.18
2023-03-12T01:15:20.399Z,3.09
2023-03-12T01:17:46.917Z,3.11
2023-03-12T01:20:13.650Z,3.04
2023-03-12T01:22:40.518Z,3.10
2023-03-12T01:25:07.347Z,3.08
2023-03-12T01:27:33.773Z,3.19
2023-03-12T01:30:00.367Z,3.14
2023-03-12T01:32:26.909Z,3.13
2023-03-12T01:34:53.405Z,3.10
2023-03-12T01:37:19.805Z,3.03
2023-03-12T01:39:46.370Z,3.06
2023-03-12T01:42:12.758Z,2.94
2023-03-12T01:44:58.663Z,3.06
2023-03-12T01:47:26.212Z,2.79
2023-03-12T01:49:54.363Z,2.98
2023-03-12T01:52:23.353Z,2.82
2023-03-12T01:54:57.534Z,2.95
2023-03-12T01:57:30.566Z,2.94
2023-03-12T02:00:00.371Z,2.98
2023-03-12T02:02:28.755Z,2.91
2023-03-12T02:05:18.070Z,2.83
2023-03-12T02:07:44.490Z,2.71
2023-03-12T02:10:11.744Z,2.64
2023-03-12T02:12:38.353Z,2.69
2023-03-12T02:15:05.524Z,2.74
2023-03-12T02:17:32.055Z,2.71
2023-03-12T02:20:13.108Z,2.76
2023-03-12T02:22:41.284Z,2.77
2023-03-12T02:25:30.778Z,2.74
2023-03-12T02:27:59.380Z,2.74
2023-03-12T02:30:27.524Z,2.71
2023-03-12T02:32:54.574Z,2.77
2023-03-12T02:35:21.117Z,2.59
2023-03-12T02:37:49.108Z,2.58
2023-03-12T02:40:23.827Z,2.85
2023-03-12T02:42:50.269Z,2.74
2023-03-12T02:45:16.781Z,2.71
2023-03-12T02:47:43.166Z,2.70
2023-03-12T02:50:10.196Z,2.74
2023-03-12T02:52:38.113Z,2.67
2023-03-12T02:55:05.600Z,2.64
2023-03-12T02:57:32.054Z,2.64
2023-03-12T02:59:58.504Z,2.52
2023-03-12T03:02:25.399Z,2.37
2023-03-12T03:04:51.762Z,2.38
2023-03-12T03:07:18.144Z,2.42
2023-03-12T03:09:44.545Z,2.32
2023-03-12T03:12:10.950Z,2.28
2023-03-12T03:14:37.330Z,2.32
2023-03-12T03:17:03.787Z,2.37
2023-03-12T03:19:30.220Z,2.31
2023-03-12T03:21:56.672Z,2.32
2023-03-12T03:24:23.070Z,2.39
2023-03-12T03:26:49.650Z,2.39
2023-03-12T03:29:16.942Z,2.33
2023-03-12T03:31:43.416Z,2.34
2023-03-12T03:34:10.273Z,2.38
2023-03-12T03:36:36.732Z,2.41
2023-03-12T03:39:04.913Z,2.56
2023-03-12T03:41:32.886Z,2.56
2023-03-12T03:43:59.524Z,2.65
2023-03-12T03:46:26.289Z,2.62
2023-03-12T03:48:52.914Z,2.71
2023-03-12T03:51:19.919Z,2.63
2023-03-12T03:53:46.342Z,2.66
2023-03-12T03:56:15.646Z,2.61
2023-03-12T03:58:42.282Z,2.69
2023-03-12T04:01:08.707Z,2.61
2023-03-12T04:03:35.317Z,2.70
2023-03-12T04:06:03.744Z,2.68
2023-03-12T04:08:30.374Z,2.67
2023-03-12T04:10:56.752Z,2.81
2023-03-12T04:13:23.128Z,2.80
2023-03-12T04:15:51.173Z,2.92
2023-03-12T04:18:18.164Z,2.98
2023-03-12T04:20:45.190Z,3.02
2023-03-12T04:23:11.562Z,3.08
2023-03-12T04:25:38.317Z,3.16
2023-03-12T04:28:05.574Z,3.06
2023-03-12T04:30:32.117Z,2.96
2023-03-12T04:32:58.469Z,2.95
2023-03-12T04:35:25.051Z,2.91
2023-03-12T04:37:52.058Z,2.85
2023-03-12T04:40:19.932Z,2.93
2023-03-12T04:42:46.548Z,3.01
2023-03-12T04:45:12.983Z,2.80
2023-03-12T04:47:39.727Z,2.82
2023-03-12T04:50:06.635Z,2.79
2023-03-12T04:52:33.006Z,2.79
2023-03-12T04:55:02.310Z,2.78
2023-03-12T04:57:28.723Z,2.69
2023-03-12T04:59:55.119Z,2.79
2023-03-12T05:02:21.509Z,2.66
2023-03-12T05:04:47.860Z,2.66
2023-03-12T05:07:14.301Z,2.42
2023-03-12T05:09:40.706Z,2.40
2023-03-12T05:12:07.318Z,2.73
2023-03-12T05:14:33.734Z,2.77
2023-03-12T05:17:00.124Z,2.83
2023-03-12T05:19:26.819Z,2.96
2023-03-12T05:21:53.198Z,2.70
2023-03-12T05:24:21.932Z,2.91
2023-03-12T05:26:48.578Z,3.13
2023-03-12T05:29:15.246Z,3.08
2023-03-12T05:31:41.680Z,3.06
2023-03-12T05:34:08.225Z,3.02
2023-03-12T05:36:34.638Z,3.18
2023-03-12T05:39:01.040Z,3.23
2023-03-12T05:41:29.238Z,3.14
2023-03-12T05:43:56.823Z,3.17
2023-03-12T05:46:24.892Z,3.15
2023-03-12T05:48:51.572Z,3.27
2023-03-12T05:51:18.088Z,3.28
2023-03-12T05:53:44.555Z,3.24
2023-03-12T05:56:13.474Z,3.36
2023-03-12T05:58:39.987Z,3.60
2023-03-12T06:01:23.015Z,3.52
2023-03-12T06:03:49.698Z,3.60
2023-03-12T06:06:16.265Z,3.65
2023-03-12T06:08:43.004Z,3.65
2023-03-12T06:11:09.786Z,3.80
2023-03-12T06:13:36.217Z,3.74
2023-03-12T06:16:20.988Z,3.84
2023-03-12T06:18:47.746Z,3.97
2023-03-12T06:21:16.550Z,3.91
2023-03-12T06:23:43.790Z,3.92
2023-03-12T06:26:11.506Z,3.94
2023-03-12T06:28:38.449Z,3.88
2023-03-12T06:31:06.665Z,3.90
2023-03-12T06:33:33.580Z,3.94
2023-03-12T06:36:01.251Z,4.00
2023-03-12T06:38:27.767Z,4.00
2023-03-12T06:41:02.030Z,4.23
2023-03-12T06:43:30.230Z,4.21
2023-03-12T06:45:58.182Z,4.37
2023-03-12T06:48:25.162Z,4.45
2023-03-12T06:50:52.333Z,4.56
2023-03-12T06:53:19.956Z,4.50
2023-03-12T06:55:46.921Z,4.75
2023-03-12T06:58:13.399Z,4.93
2023-03-12T07:00:39.907Z,5.09
2023-03-12T07:03:06.425Z,5.35
2023-03-12T07:05:33.214Z,5.43
2023-03-12T07:07:59.703Z,5.51
2023-03-12T07:10:29.333Z,5.46
2023-03-12T07:12:56.921Z,5.54
2023-03-12T07:15:23.704Z,5.66
2023-03-12T07:17:50.568Z,5.72
2023-03-12T07:20:17.218Z,5.99
2023-03-12T07:22:43.621Z,6.25
2023-03-12T07:25:10.377Z,6.40
2023-03-12T07:27:36.847Z,6.40
2023-03-12T07:30:03.986Z,6.64
2023-03-12T07:32:30.583Z,6.89
2023-03-12T07:34:56.982Z,6.97
2023-03-12T07:37:23.424Z,7.03
2023-03-12T07:39:52.358Z,7.06
2023-03-12T07:42:18.883Z,7.10
2023-03-12T07:44:45.859Z,6.88
2023-03-12T07:47:23.084Z,6.87
2023-03-12T07:49:50.348Z,6.61
2023-03-12T07:52:18.003Z,6.45
2023-03-12T07:54:44.465Z,6.58
2023-03-12T07:57:11.285Z,6.71
2023-03-12T07:59:37.711Z,6.73
2023-03-12T08:02:06.853Z,6.96
2023-03-12T08:04:33.446Z,7.00
2023-03-12T08:06:59.941Z,7.13
2023-03-12T08:09:26.371Z,7.00
2023-03-12T08:11:52.848Z,6.85
2023-03-12T08:14:19.300Z,7.05
2023-03-12T08:16:45.847Z,7.00
2023-03-12T08:19:13.002Z,6.99
2023-03-12T08:21:39.405Z,7.21
2023-03-12T08:24:05.932Z,7.34
2023-03-12T08:26:32.311Z,7.51
2023-03-12T08:29:00.255Z,7.74
2023-03-12T08:31:28.073Z,7.78
2023-03-12T08:33:54.500Z,7.86
2023-03-12T08:36:22.494Z,7.94
2023-03-12T08:38:49.040Z,7.94
2023-03-12T08:41:15.453Z,8.21
2023-03-12T08:43:42.001Z,8.41
2023-03-12T08:46:09.861Z,8.46
2023-03-12T08:48:38.285Z,8.05
2023-03-12T08:51:05.944Z,8.15
2023-03-12T08:53:33.855Z,8.14
2023-03-12T08:56:01.152Z,8.11
2023-03-12T08:58:27.758Z,8.55
2023-03-12T09:00:55.236Z,8.59
2023-03-12T09:03:22.392Z,9.00
2023-03-12T09:05:48.926Z,9.37
2023-03-12T09:08:15.825Z,9.21
2023-03-12T09:10:48.081Z,8.99
2023-03-12T09:13:14.552Z,8.56
2023-03-12T09:15:40.975Z,8.66
2023-03-12T09:18:07.461Z,8.66
2023-03-12T09:20:33.872Z,8.75
2023-03-12T09:23:00.522Z,9.01
2023-03-12T09:25:26.922Z,9.17
2023-03-12T09:27:53.301Z,9.23
2023-03-12T09:30:21.740Z,9.21
2023-03-12T09:32:48.318Z,9.27
2023-03-12T09:35:16.080Z,9.21
2023-03-12T09:37:43.121Z,9.59
2023-03-12T09:40:16.974Z,9.53
2023-03-12T09:42:58.450Z,9.36
2023-03-12T09:45:26.779Z,9.54
2023-03-12T09:47:55.680Z,9.70
2023-03-12T09:50:40.870Z,9.90
2023-03-12T09:53:27.565Z,10.04
2023-03-12T09:55:57.119Z,9.57
2023-03-12T09:58:26.641Z,9.54
2023-03-12T10:01:10.620Z,9.68
2023-03-12T10:03:52.096Z,10.09
2023-03-12T10:06:23.737Z,10.38
2023-03-12T10:09:27.779Z,10.30
2023-03-12T10:12:11.704Z,10.22
2023-03-12T10:14:47.217Z,10.17
2023-03-12T10:17:48.514Z,10.27
2023-03-12T10:20:26.963Z,9.96
2023-03-12T10:23:12.045Z,10.17
2023-03-12T10:26:04.770Z,10.18
2023-03-12T10:28:52.092Z,10.37
2023-03-12T10:31:21.834Z,10.56
2023-03-12T10:33:53.631Z,10.68
2023-03-12T10:36:33.588Z,10.77
2023-03-12T10:39:00.292Z,10.87
2023-03-12T10:41:32.152Z,10.81
2023-03-12T10:44:09.232Z,10.93
2023-03-12T10:46:46.816Z,10.50
2023-03-12T10:49:23.719Z,10.79
2023-03-12T10:51:56.202Z,10.39
2023-03-12T10:54:28.299Z,10.54
2023-03-12T10:56:54.678Z,10.32
2023-03-12T10:59:22.641Z,10.07
2023-03-12T11:01:50.943Z,9.88
2023-03-12T11:04:20.190Z,9.93
2023-03-12T11:07:14.497Z,9.72
2023-03-12T11:09:40.950Z,9.47
2023-03-12T11:12:24.852Z,9.38
2023-03-12T11:14:51.314Z,9.34
2023-03-12T11:17:24.693Z,9.22
2023-03-12T11:19:51.360Z,9.19
2023-03-12T11:22:32.340Z,8.88
2023-03-12T11:25:01.559Z,8.64
2023-03-12T11:27:40.747Z,8.69
2023-03-12T11:30:22.335Z,8.59
2023-03-12T11:32:50.001Z,8.40
2023-03-12T11:35:19.860Z,8.18
2023-03-12T11:38:10.599Z,7.99
2023-03-12T11:41:14.049Z,8.15
2023-03-12T11:43:57.185Z,8.17
2023-03-12T11:46:36.165Z,8.35
2023-03-12T11:49:08.610Z,8.53
2023-03-12T11:52:15.995Z,8.55
2023-03-12T11:55:16.428Z,8.35
2023-03-12T11:57:49.803Z,8.31
2023-03-12T12:00:18.160Z,8.06
2023-03-12T12:03:02.805Z,8.32
2023-03-12T12:05:36.692Z,8.37
2023-03-12T12:08:29.786Z,8.35
2023-03-12T12:11:05.855Z,8.14
2023-03-12T12:14:06.853Z,8.16
2023-03-12T12:16:43.149Z,8.37
2023-03-12T12:19:31.741Z,8.19
2023-03-12T12:22:23.113Z,8.28
2023-03-12T12:25:16.552Z,8.33
2023-03-12T12:28:08.553Z,8.38
2023-03-12T12:30:50.073Z,8.30
2023-03-12T12:33:41.112Z,8.16
2023-03-12T12:36:11.051Z,7.84
2023-03-12T12:38:42.329Z,8.05
2023-03-12T12:41:18.699Z,8.22
2023-03-12T12:43:51.226Z,7.83
2023-03-12T12:46:26.280Z,7.84
2023-03-12T12:48:54.213Z,7.62
2023-03-12T12:51:23.517Z,7.65
2023-03-12T12:53:55.049Z,7.69
2023-03-12T12:56:39.424Z,7.81
2023-03-12T12:59:25.126Z,7.61
2023-03-12T13:01:54.084Z,7.59
2023-03-12T13:04:27.450Z,7.74
2023-03-12T13:06:58.369Z,7.77
2023-03-12T13:09:46.505Z,7.74
2023-03-12T13:12:27.509Z,7.65
2023-03-12T13:14:55.147Z,7.72
2023-03-12T13:17:26.901Z,7.61
2023-03-12T13:20:20.731Z,7.76
2023-03-12T13:22:59.341Z,8.14
2023-03-12T13:25:47.817Z,8.28
2023-03-12T13:28:32.363Z,8.24
2023-03-12T13:31:00.487Z,8.22
2023-03-12T13:33:40.391Z,8.31
2023-03-12T13:36:23.183Z,8.31
2023-03-12T13:38:54.234Z,8.22
2023-03-12T13:41:31.933Z,8.28
2023-03-12T13:43:58.604Z,8.46
2023-03-12T13:46:39.582Z,8.42
2023-03-12T13:49:11.702Z,8.30
2023-03-12T13:51:55.422Z,8.32
2023-03-12T13:54:25.817Z,8.49
2023-03-12T13:56:59.358Z,8.47
2023-03-12T13:59:27.380Z,8.47
2023-03-12T14:01:57.553Z,8.40
2023-03-12T14:04:29.531Z,8.39
2023-03-12T14:07:22.108Z,8.51
2023-03-12T14:09:57.563Z,8.53
2023-03-12T14:12:39.319Z,8.41
2023-03-12T14:15:13.674Z,8.26
2023-03-12T14:17:40.718Z,8.18
2023-03-12T14:20:17.246Z,8.14
2023-03-12T14:22:45.350Z,8.08
2023-03-12T14:25:22.432Z,8.03
2023-03-12T14:27:49.219Z,8.03
2023-03-12T14:30:15.555Z,7.94
2023-03-12T14:32:43.111Z,7.94
2023-03-12T14:35:25.838Z,7.98
2023-03-12T14:38:05.404Z,7.92
2023-03-12T14:40:51.918Z,7.92
2023-03-12T14:43:28.561Z,7.90
2023-03-12T14:46:00.514Z,7.98
2023-03-12T14:48:37.332Z,8.05
2023-03-12T14:51:06.385Z,8.24
2023-03-12T14:53:37.406Z,8.15
2023-03-12T14:56:06.865Z,8.19
2023-03-12T14:58:34.880Z,8.10
2023-03-12T15:01:04.511Z,8.09
2023-03-12T15:03:41.035Z,8.18
2023-03-12T15:06:32.959Z,8.37
2023-03-12T15:09:02.995Z,8.77
2023-03-12T15:11:30.194Z,8.79
2023-03-12T15:14:01.068Z,8.81
2023-03-12T15:16:27.800Z,8.66
2023-03-12T15:18:54.272Z,8.51
2023-03-12T15:21:20.929Z,8.37
2023-03-12T15:23:48.140Z,8.52
2023-03-12T15:26:20.516Z,8.50
2023-03-12T15:29:04.305Z,8.68
2023-03-12T15:31:44.691Z,8.56
2023-03-12T15:34:13.455Z,8.58
2023-03-12T15:36:47.913Z,8.44
2023-03-12T15:39:34.650Z,8.43
2023-03-12T15:42:06.501Z,8.47
2023-03-12T15:44:44.992Z,8.50
2023-03-12T15:47:14.563Z,8.70
2023-03-12T15:49:41.126Z,8.76
2023-03-12T15:52:07.661Z,8.72
2023-03-12T15:54:36.277Z,8.70
2023-03-12T15:57:20.645Z,8.79
2023-03-12T16:00:13.547Z,8.71
2023-03-12T16:02:46.656Z,8.72
2023-03-12T16:05:13.139Z,8.82
2023-03-12T16:07:39.540Z,8.91
2023-03-12T16:10:07.078Z,8.92
2023-03-12T16:12:33.798Z,9.00
2023-03-12T16:15:00.243Z,9.01
2023-03-12T16:17:26.604Z,8.77
2023-03-12T16:19:52.985Z,9.05
2023-03-12T16:22:20.481Z,9.16
2023-03-12T16:24:46.867Z,8.93
2023-03-12T16:27:18.015Z,8.87
2023-03-12T16:29:47.059Z,9.12
2023-03-12T16:32:15.868Z,9.11
2023-03-12T16:34:42.623Z,9.12
2023-03-12T16:37:13.606Z,9.09
2023-03-12T16:39:40.565Z,9.07
2023-03-12T16:42:14.245Z,9.00
2023-03-12T16:44:40.936Z,9.16
2023-03-12T16:47:12.350Z,9.37
2023-03-12T16:49:38.873Z,9.57
2023-03-12T16:52:19.420Z,9.72
2023-03-12T16:54:46.482Z,9.72
2023-03-12T16:57:32.954Z,9.48
2023-03-12T17:00:00.017Z,9.47
2023-03-12T17:02:26.427Z,9.57
2023-03-12T17:04:53.079Z,9.67
2023-03-12T17:07:19.486Z,9.65
2023-03-12T17:09:45.897Z,9.65
2023-03-12T17:12:30.194Z,9.68
2023-03-12T17:14:58.607Z,9.70
2023-03-12T17:17:25.140Z,9.71
2023-03-12T17:19:52.077Z,9.79
2023-03-12T17:22:19.762Z,9.80
2023-03-12T17:24:47.150Z,9.73
2023-03-12T17:27:15.505Z,9.85
2023-03-12T17:29:42.211Z,9.79
2023-03-12T17:32:08.613Z,9.87
2023-03-12T17:34:35.007Z,10.11
2023-03-12T17:37:02.378Z,10.06
2023-03-12T17:39:28.809Z,9.98
2023-03-12T17:41:55.308Z,9.85
2023-03-12T17:44:21.714Z,9.70
2023-03-12T17:46:58.929Z,9.78
2023-03-12T17:49:26.070Z,9.77
2023-03-12T17:51:52.463Z,9.71
2023-03-12T17:54:18.865Z,9.65
2023-03-12T17:56:45.224Z,9.66
2023-03-12T17:59:11.617Z,9.79
2023-03-12T18:01:37.973Z,9.76
2023-03-12T18:04:04.358Z,9.84
2023-03-12T18:06:30.948Z,9.88
2023-03-12T18:08:57.329Z,9.92
2023-03-12T18:11:23.752Z,9.87
2023-03-12T18:13:50.182Z,9.79
2023-03-12T18:16:16.885Z,9.89
2023-03-12T18:18:43.465Z,9.75
2023-03-12T18:21:09.900Z,9.89
2023-03-12T18:23:36.366Z,9.79
2023-03-12T18:26:03.914Z,9.85
2023-03-12T18:28:30.401Z,9.89
2023-03-12T18:30:56.824Z,9.93
2023-03-12T18:33:23.208Z,9.87
2023-03-12T18:35:49.691Z,9.76
2023-03-12T18:38:16.148Z,10.00
2023-03-12T18:40:42.585Z,10.14
2023-03-12T18:43:08.968Z,10.11
2023-03-12T18:45:35.484Z,10.10
2023-03-12T18:48:01.863Z,10.03
2023-03-12T18:50:28.250Z,9.94
2023-03-12T18:52:54.661Z,10.11
2023-03-12T18:55:21.160Z,9.98
2023-03-12T18:57:47.905Z,10.00
2023-03-12T19:00:17.678Z,10.06
2023-03-12T19:02:47.696Z,10.15
2023-03-12T19:05:14.507Z,9.96
2023-03-12T19:07:40.915Z,10.01
2023-03-12T19:10:07.902Z,10.03
2023-03-12T19:12:42.371Z,10.00
2023-03-12T19:15:15.554Z,10.05
2023-03-12T19:17:41.935Z,10.12
2023-03-12T19:20:09.693Z,10.20
2023-03-12T19:22:36.060Z,10.15
2023-03-12T19:25:02.439Z,10.15
2023-03-12T19:27:29.709Z,10.05
2023-03-12T19:29:56.242Z,10.11
2023-03-12T19:32:25.341Z,10.05
2023-03-12T19:34:54.029Z,9.99
2023-03-12T19:37:20.529Z,9.94
2023-03-12T19:39:46.952Z,9.84
2023-03-12T19:42:13.365Z,9.81
2023-03-12T19:44:40.416Z,9.75
2023-03-12T19:47:07.772Z,9.60
2023-03-12T19:49:35.231Z,9.55
2023-03-12T19:52:02.428Z,9.31
2023-03-12T19:54:28.910Z,9.10
2023-03-12T19:56:55.470Z,8.97
2023-03-12T19:59:21.867Z,9.24
2023-03-12T20:01:48.319Z,9.26
2023-03-12T20:04:14.746Z,9.30
2023-03-12T20:06:41.196Z,9.33
2023-03-12T20:09:07.569Z,9.41
2023-03-12T20:11:36.614Z,9.38
2023-03-12T20:14:03.584Z,9.44
2023-03-12T20:16:30.124Z,9.28
2023-03-12T20:18:56.805Z,9.34
2023-03-12T20:21:23.557Z,9.36
2023-03-12T20:23:49.950Z,9.24
2023-03-12T20:26:16.337Z,9.20
2023-03-12T20:28:42.705Z,9.16
2023-03-12T20:31:10.993Z,9.16
2023-03-12T20:33:37.750Z,9.19
2023-03-12T20:36:06.373Z,9.07
2023-03-12T20:38:32.830Z,9.25
2023-03-12T20:40:59.484Z,9.32
2023-03-12T20:43:25.946Z,9.27
2023-03-12T20:45:52.354Z,9.28
2023-03-12T20:48:18.796Z,9.41
2023-03-12T20:50:45.295Z,9.40
2023-03-12T20:53:11.758Z,9.38
2023-03-12T20:55:38.403Z,9.37
2023-03-12T20:58:04.979Z,9.50
2023-03-12T21:00:31.557Z,9.51
2023-03-12T21:02:57.967Z,9.41
2023-03-12T21:05:25.178Z,9.40
2023-03-12T21:07:52.513Z,9.50
2023-03-12T21:10:18.953Z,9.44
2023-03-12T21:12:45.374Z,9.38
2023-03-12T21:15:12.434Z,9.49
2023-03-12T21:17:40.114Z,9.40
2023-03-12T21:20:13.242Z,9.42
2023-03-12T21:22:39.941Z,9.50
2023-03-12T21:25:06.918Z,9.53
2023-03-12T21:27:44.681Z,9.62
2023-03-12T21:30:16.376Z,9.72
2023-03-12T21:32:42.824Z,9.46
2023-03-12T21:35:09.725Z,9.43
2023-03-12T21:37:36.963Z,9.40
2023-03-12T21:40:03.749Z,9.38
2023-03-12T21:42:33.173Z,9.39
2023-03-12T21:44:59.553Z,9.36
2023-03-12T21:47:26.080Z,9.40
2023-03-12T21:49:52.560Z,9.46
2023-03-12T21:52:19.000Z,9.45
2023-03-12T21:54:45.566Z,9.54
2023-03-12T21:57:12.009Z,9.62
2023-03-12T21:59:38.472Z,9.73
2023-03-12T22:02:05.065Z,10.07
2023-03-12T22:04:32.175Z,10.06
2023-03-12T22:06:58.635Z,10.04
2023-03-12T22:09:25.044Z,9.96
2023-03-12T22:11:51.461Z,10.11
2023-03-12T22:14:17.855Z,9.96
2023-03-12T22:16:44.289Z,10.01
2023-03-12T22:19:10.863Z,10.05
2023-03-12T22:21:37.774Z,10.11
2023-03-12T22:24:04.453Z,10.01
2023-03-12T22:26:30.984Z,10.04
2023-03-12T22:28:58.109Z,10.09
2023-03-12T22:31:26.257Z,10.15
2023-03-12T22:33:52.965Z,10.00
2023-03-12T22:36:20.436Z,10.13
2023-03-12T22:38:50.234Z,10.04
2023-03-12T22:41:16.631Z,10.12
2023-03-12T22:43:43.662Z,10.11
2023-03-12T22:46:10.270Z,9.89
2023-03-12T22:48:36.831Z,9.87
2023-03-12T22:51:04.323Z,9.80
2023-03-12T22:53:34.204Z,9.96
2023-03-12T22:56:11.279Z,9.96
2023-03-12T22:58:37.764Z,9.99
2023-03-12T23:01:06.652Z,10.05
2023-03-12T23:03:34.129Z,10.18
2023-03-12T23:06:01.144Z,10.24
2023-03-12T23:08:28.197Z,10.23
2023-03-12T23:11:00.329Z,10.19
2023-03-12T23:13:28.090Z,10.20
2023-03-12T23:15:54.650Z,10.18
2023-03-12T23:18:21.348Z,10.14
2023-03-12T23:20:47.842Z,10.18
2023-03-12T23:23:16.851Z,10.15
2023-03-12T23:25:43.253Z,10.15
2023-03-12T23:28:09.657Z,10.23
2023-03-12T23:30:36.030Z,10.24
2023-03-12T23:33:02.472Z,10.13
2023-03-12T23:35:29.113Z,10.11
2023-03-12T23:37:56.688Z,10.09
2023-03-12T23:40:23.085Z,10.03
2023-03-12T23:42:49.435Z,10.09
2023-03-12T23:45:15.929Z,10.11
2023-03-12T23:47:42.308Z,10.23
2023-03-12T23:50:09.369Z,10.29
2023-03-12T23:52:35.768Z,10.17
2023-03-12T23:55:02.132Z,10.29
2023-03-12T23:57:29.273Z,10.33
2023-03-12T23:59:55.652Z,10.44
